Airfield :
LOGIN :

Register | Disclaimer

   EN    FR    IT 

 










Legend :    VFR   Marginal VFR   IFR   Intensive IFR   Very Intensive IFR
Visi :
Ceiling :
>= 8 km
>= 3000ft
5 to 8 km
1000 to 3000 ft
1500m to 5 km
500 to 1000 ft
800 to 1500m
200 to 500 ft
< 800m
< 200 ft
Symbols :   Thunderstorms  Fog  Heavy snow  Heavy precipitations  Wind > 20 kt
SIGMETs :     Misc.  Thunderstorms  Icing  Turbulence  Mountain Waves  Volcanic Ashes






- Airport Elevation : 502 ft
- IATA code : ORK


EICK - Cork

CURRENT METAR :
  • 221230Z 21017KT 9999 BKN020 BKN050 15/10 Q1009 NOSIG

EXPIRED METARs :
  • 221200Z 22015KT 9999 BKN020 BKN050 14/08 Q1009 NOSIG
  • 221130Z 21014KT 9999 BKN020 BKN060 14/08 Q1009 NOSIG
  • 221100Z 22015KT 9999 BKN020 BKN060 15/10 Q1009 NOSIG
  • 221030Z 24012KT 9999 SCT017 BKN050 15/10 Q1009 NOSIG
  • 221000Z 23012KT 9999 SCT017 BKN030 14/10 Q1010 NOSIG

TAF TAF EICK
Valid from the 22 at 12:00 until the 23 at 12:00 UTC


221100Z 2212/2312 24012KT 9999 BKN020
PROB40
TEMPO 2212/2217 25015G25KT -SHRA
BECMG 2222/2224 27007KT
BECMG 2305/2307 30010KT
BECMG 2308/2310 -SHRA SCT018CB
PROB30
TEMPO 2311/2312 31015G25KT SHRA



MET'MAP, your aeronautical weather chart ! - Copyright ORBIFLY December 2007 - Disclaimer

ORBIFLY MET'MAP TEAM :

Programming & Development : Alexandra Zaïnal
Original concept : Baudouin d'Aumeries
Technical & hardware support : Manuel Goepfert
Assistance : Marc-Olivier Méhu

Contact : metmap@orbifly.com




SOURCES & CREDITS :

   NOAA